sensor_id;sensor_type;location;lat;lon;timestamp;P1;durP1;ratioP1;P2;durP2;ratioP2
79478;SDS011;68943;49.472;17.970;2024-03-29T00:00:36;8.13;;;3.55;;
79478;SDS011;68943;49.472;17.970;2024-03-29T00:03:03;16.00;;;4.50;;
79478;SDS011;68943;49.472;17.970;2024-03-29T00:05:29;8.60;;;2.85;;
79478;SDS011;68943;49.472;17.970;2024-03-29T00:07:55;14.18;;;4.88;;
79478;SDS011;68943;49.472;17.970;2024-03-29T00:10:21;18.33;;;4.95;;
79478;SDS011;68943;49.472;17.970;2024-03-29T00:12:47;8.80;;;3.25;;
79478;SDS011;68943;49.472;17.970;2024-03-29T00:15:13;8.27;;;3.95;;
79478;SDS011;68943;49.472;17.970;2024-03-29T00:17:39;14.48;;;5.60;;
79478;SDS011;68943;49.472;17.970;2024-03-29T00:20:06;30.60;;;14.40;;
79478;SDS011;68943;49.472;17.970;2024-03-29T00:22:32;25.25;;;11.13;;
79478;SDS011;68943;49.472;17.970;2024-03-29T00:24:58;12.40;;;5.35;;
79478;SDS011;68943;49.472;17.970;2024-03-29T00:27:24;6.90;;;3.53;;
79478;SDS011;68943;49.472;17.970;2024-03-29T00:29:52;14.05;;;6.35;;
79478;SDS011;68943;49.472;17.970;2024-03-29T00:32:20;17.23;;;8.05;;
79478;SDS011;68943;49.472;17.970;2024-03-29T00:34:47;8.30;;;2.60;;
79478;SDS011;68943;49.472;17.970;2024-03-29T00:37:13;9.45;;;3.85;;
79478;SDS011;68943;49.472;17.970;2024-03-29T00:39:39;9.13;;;2.60;;
79478;SDS011;68943;49.472;17.970;2024-03-29T00:42:05;12.73;;;4.50;;
79478;SDS011;68943;49.472;17.970;2024-03-29T00:44:33;14.82;;;6.60;;
79478;SDS011;68943;49.472;17.970;2024-03-29T00:47:00;6.35;;;2.65;;
79478;SDS011;68943;49.472;17.970;2024-03-29T00:49:26;9.07;;;3.67;;
79478;SDS011;68943;49.472;17.970;2024-03-29T00:51:52;8.40;;;3.15;;
79478;SDS011;68943;49.472;17.970;2024-03-29T00:54:19;7.20;;;3.13;;
79478;SDS011;68943;49.472;17.970;2024-03-29T00:56:45;4.63;;;2.10;;
79478;SDS011;68943;49.472;17.970;2024-03-29T00:59:11;3.28;;;1.05;;
79478;SDS011;68943;49.472;17.970;2024-03-29T01:01:37;2.45;;;0.82;;
79478;SDS011;68943;49.472;17.970;2024-03-29T01:04:03;2.35;;;1.23;;
79478;SDS011;68943;49.472;17.970;2024-03-29T01:06:29;4.35;;;1.25;;
79478;SDS011;68943;49.472;17.970;2024-03-29T01:08:55;8.43;;;2.53;;
79478;SDS011;68943;49.472;17.970;2024-03-29T01:11:21;9.95;;;6.90;;
79478;SDS011;68943;49.472;17.970;2024-03-29T01:13:47;15.75;;;9.57;;
79478;SDS011;68943;49.472;17.970;2024-03-29T01:16:14;9.25;;;4.30;;
79478;SDS011;68943;49.472;17.970;2024-03-29T01:18:40;6.80;;;3.33;;
79478;SDS011;68943;49.472;17.970;2024-03-29T01:21:08;6.65;;;2.53;;
79478;SDS011;68943;49.472;17.970;2024-03-29T01:23:34;5.47;;;3.00;;
79478;SDS011;68943;49.472;17.970;2024-03-29T01:26:01;7.82;;;3.88;;
79478;SDS011;68943;49.472;17.970;2024-03-29T01:28:27;3.58;;;1.13;;
79478;SDS011;68943;49.472;17.970;2024-03-29T01:30:54;8.30;;;5.25;;
79478;SDS011;68943;49.472;17.970;2024-03-29T01:33:21;7.85;;;2.92;;
79478;SDS011;68943;49.472;17.970;2024-03-29T01:35:47;7.07;;;2.63;;
79478;SDS011;68943;49.472;17.970;2024-03-29T01:38:14;1.65;;;0.75;;
79478;SDS011;68943;49.472;17.970;2024-03-29T01:40:40;3.15;;;1.98;;
79478;SDS011;68943;49.472;17.970;2024-03-29T01:43:06;1.85;;;1.20;;
79478;SDS011;68943;49.472;17.970;2024-03-29T01:45:34;2.17;;;0.90;;
79478;SDS011;68943;49.472;17.970;2024-03-29T01:48:01;2.45;;;1.15;;
79478;SDS011;68943;49.472;17.970;2024-03-29T01:50:28;2.28;;;1.45;;
79478;SDS011;68943;49.472;17.970;2024-03-29T01:52:55;1.73;;;1.30;;
79478;SDS011;68943;49.472;17.970;2024-03-29T01:55:21;2.88;;;1.00;;
79478;SDS011;68943;49.472;17.970;2024-03-29T01:57:47;1.30;;;0.70;;
79478;SDS011;68943;49.472;17.970;2024-03-29T02:00:13;1.42;;;1.00;;
79478;SDS011;68943;49.472;17.970;2024-03-29T02:02:40;2.15;;;1.13;;
79478;SDS011;68943;49.472;17.970;2024-03-29T02:05:06;1.63;;;1.02;;
79478;SDS011;68943;49.472;17.970;2024-03-29T02:07:32;1.25;;;0.73;;
79478;SDS011;68943;49.472;17.970;2024-03-29T02:09:59;2.30;;;1.48;;
79478;SDS011;68943;49.472;17.970;2024-03-29T02:12:25;3.20;;;1.95;;
79478;SDS011;68943;49.472;17.970;2024-03-29T02:14:51;2.25;;;1.05;;
79478;SDS011;68943;49.472;17.970;2024-03-29T02:17:18;1.55;;;1.45;;
79478;SDS011;68943;49.472;17.970;2024-03-29T02:19:44;3.22;;;1.08;;
79478;SDS011;68943;49.472;17.970;2024-03-29T02:22:10;1.58;;;1.25;;
79478;SDS011;68943;49.472;17.970;2024-03-29T02:24:39;2.03;;;1.35;;
79478;SDS011;68943;49.472;17.970;2024-03-29T02:27:05;2.55;;;1.70;;
79478;SDS011;68943;49.472;17.970;2024-03-29T02:29:31;4.82;;;1.02;;
79478;SDS011;68943;49.472;17.970;2024-03-29T02:31:57;1.45;;;1.27;;
79478;SDS011;68943;49.472;17.970;2024-03-29T02:34:23;3.08;;;0.98;;
79478;SDS011;68943;49.472;17.970;2024-03-29T02:36:49;2.05;;;1.25;;
79478;SDS011;68943;49.472;17.970;2024-03-29T02:39:15;1.13;;;1.02;;
79478;SDS011;68943;49.472;17.970;2024-03-29T02:41:41;1.77;;;1.13;;
79478;SDS011;68943;49.472;17.970;2024-03-29T02:44:07;2.15;;;1.45;;
79478;SDS011;68943;49.472;17.970;2024-03-29T02:46:35;1.30;;;1.17;;
79478;SDS011;68943;49.472;17.970;2024-03-29T02:49:01;1.98;;;1.20;;
79478;SDS011;68943;49.472;17.970;2024-03-29T02:51:28;1.83;;;0.90;;
79478;SDS011;68943;49.472;17.970;2024-03-29T02:53:54;1.67;;;0.88;;
79478;SDS011;68943;49.472;17.970;2024-03-29T02:56:20;1.67;;;0.93;;
79478;SDS011;68943;49.472;17.970;2024-03-29T02:58:48;5.28;;;3.78;;
79478;SDS011;68943;49.472;17.970;2024-03-29T03:01:14;2.72;;;1.92;;
79478;SDS011;68943;49.472;17.970;2024-03-29T03:03:40;5.25;;;2.65;;
79478;SDS011;68943;49.472;17.970;2024-03-29T03:06:06;2.58;;;1.48;;
79478;SDS011;68943;49.472;17.970;2024-03-29T03:08:32;1.52;;;1.02;;
79478;SDS011;68943;49.472;17.970;2024-03-29T03:11:17;2.85;;;0.95;;
79478;SDS011;68943;49.472;17.970;2024-03-29T03:13:43;1.80;;;1.13;;
79478;SDS011;68943;49.472;17.970;2024-03-29T03:16:09;1.95;;;1.45;;
79478;SDS011;68943;49.472;17.970;2024-03-29T03:18:35;2.95;;;2.55;;
79478;SDS011;68943;49.472;17.970;2024-03-29T03:21:01;2.83;;;1.48;;
79478;SDS011;68943;49.472;17.970;2024-03-29T03:23:28;4.70;;;2.15;;
79478;SDS011;68943;49.472;17.970;2024-03-29T03:26:01;1.90;;;1.42;;
79478;SDS011;68943;49.472;17.970;2024-03-29T03:28:29;2.70;;;1.55;;
79478;SDS011;68943;49.472;17.970;2024-03-29T03:30:55;2.92;;;1.83;;
79478;SDS011;68943;49.472;17.970;2024-03-29T03:33:21;3.20;;;2.15;;
79478;SDS011;68943;49.472;17.970;2024-03-29T03:35:47;2.42;;;2.00;;
79478;SDS011;68943;49.472;17.970;2024-03-29T03:38:13;6.03;;;2.60;;
79478;SDS011;68943;49.472;17.970;2024-03-29T03:40:40;4.45;;;2.72;;
79478;SDS011;68943;49.472;17.970;2024-03-29T03:43:06;3.17;;;1.92;;
79478;SDS011;68943;49.472;17.970;2024-03-29T03:45:35;3.33;;;2.42;;
79478;SDS011;68943;49.472;17.970;2024-03-29T03:48:03;2.22;;;1.83;;
79478;SDS011;68943;49.472;17.970;2024-03-29T03:50:30;3.20;;;1.58;;
79478;SDS011;68943;49.472;17.970;2024-03-29T03:52:56;1.77;;;1.17;;
79478;SDS011;68943;49.472;17.970;2024-03-29T03:55:22;2.60;;;1.45;;
79478;SDS011;68943;49.472;17.970;2024-03-29T03:57:48;2.08;;;1.35;;
79478;SDS011;68943;49.472;17.970;2024-03-29T04:00:14;2.65;;;1.35;;
79478;SDS011;68943;49.472;17.970;2024-03-29T04:02:41;3.58;;;2.33;;
79478;SDS011;68943;49.472;17.970;2024-03-29T04:05:08;2.90;;;1.73;;
79478;SDS011;68943;49.472;17.970;2024-03-29T04:07:34;2.28;;;1.33;;
79478;SDS011;68943;49.472;17.970;2024-03-29T04:10:00;2.17;;;1.02;;
79478;SDS011;68943;49.472;17.970;2024-03-29T04:12:26;2.38;;;1.60;;
79478;SDS011;68943;49.472;17.970;2024-03-29T04:14:52;1.85;;;1.42;;
79478;SDS011;68943;49.472;17.970;2024-03-29T04:17:18;1.80;;;1.42;;
79478;SDS011;68943;49.472;17.970;2024-03-29T04:19:44;1.70;;;1.08;;
79478;SDS011;68943;49.472;17.970;2024-03-29T04:22:10;2.22;;;1.23;;
79478;SDS011;68943;49.472;17.970;2024-03-29T04:24:36;1.85;;;1.00;;
79478;SDS011;68943;49.472;17.970;2024-03-29T04:27:02;1.35;;;0.93;;
79478;SDS011;68943;49.472;17.970;2024-03-29T04:29:29;2.83;;;1.45;;
79478;SDS011;68943;49.472;17.970;2024-03-29T04:31:55;3.35;;;1.58;;
79478;SDS011;68943;49.472;17.970;2024-03-29T04:34:21;3.05;;;1.42;;
79478;SDS011;68943;49.472;17.970;2024-03-29T04:36:47;3.42;;;2.03;;
79478;SDS011;68943;49.472;17.970;2024-03-29T04:39:13;3.50;;;2.08;;
79478;SDS011;68943;49.472;17.970;2024-03-29T04:41:39;3.47;;;2.42;;
79478;SDS011;68943;49.472;17.970;2024-03-29T04:44:05;2.47;;;2.17;;
79478;SDS011;68943;49.472;17.970;2024-03-29T04:46:33;3.13;;;1.77;;
79478;SDS011;68943;49.472;17.970;2024-03-29T04:48:59;3.03;;;1.92;;
79478;SDS011;68943;49.472;17.970;2024-03-29T04:51:25;4.05;;;2.80;;
79478;SDS011;68943;49.472;17.970;2024-03-29T04:53:51;4.13;;;2.53;;
79478;SDS011;68943;49.472;17.970;2024-03-29T04:56:17;5.13;;;2.40;;
79478;SDS011;68943;49.472;17.970;2024-03-29T04:58:43;4.63;;;2.60;;
79478;SDS011;68943;49.472;17.970;2024-03-29T05:01:11;8.13;;;4.10;;
79478;SDS011;68943;49.472;17.970;2024-03-29T05:03:37;9.73;;;4.60;;
79478;SDS011;68943;49.472;17.970;2024-03-29T05:06:03;7.15;;;3.47;;
79478;SDS011;68943;49.472;17.970;2024-03-29T05:08:29;5.60;;;3.17;;
79478;SDS011;68943;49.472;17.970;2024-03-29T05:10:55;6.53;;;3.42;;
79478;SDS011;68943;49.472;17.970;2024-03-29T05:13:21;6.60;;;4.07;;
79478;SDS011;68943;49.472;17.970;2024-03-29T05:15:47;9.43;;;3.60;;
79478;SDS011;68943;49.472;17.970;2024-03-29T05:18:14;7.50;;;4.30;;
79478;SDS011;68943;49.472;17.970;2024-03-29T05:20:40;8.77;;;4.53;;
79478;SDS011;68943;49.472;17.970;2024-03-29T05:23:12;5.68;;;4.32;;
79478;SDS011;68943;49.472;17.970;2024-03-29T05:25:39;5.82;;;4.28;;
79478;SDS011;68943;49.472;17.970;2024-03-29T05:28:05;4.68;;;3.15;;
79478;SDS011;68943;49.472;17.970;2024-03-29T05:30:32;3.95;;;2.70;;
79478;SDS011;68943;49.472;17.970;2024-03-29T05:33:00;4.55;;;3.03;;
79478;SDS011;68943;49.472;17.970;2024-03-29T05:35:26;5.60;;;3.72;;
79478;SDS011;68943;49.472;17.970;2024-03-29T05:37:52;6.20;;;2.72;;
79478;SDS011;68943;49.472;17.970;2024-03-29T05:40:19;4.25;;;2.30;;
79478;SDS011;68943;49.472;17.970;2024-03-29T05:42:50;5.45;;;2.67;;
79478;SDS011;68943;49.472;17.970;2024-03-29T05:45:24;5.60;;;2.65;;
79478;SDS011;68943;49.472;17.970;2024-03-29T05:47:51;2.38;;;1.73;;
79478;SDS011;68943;49.472;17.970;2024-03-29T05:50:17;3.70;;;2.15;;
79478;SDS011;68943;49.472;17.970;2024-03-29T05:52:43;4.05;;;2.03;;
79478;SDS011;68943;49.472;17.970;2024-03-29T05:55:09;3.10;;;1.70;;
79478;SDS011;68943;49.472;17.970;2024-03-29T05:57:35;3.40;;;1.85;;
79478;SDS011;68943;49.472;17.970;2024-03-29T06:00:06;4.45;;;1.63;;
79478;SDS011;68943;49.472;17.970;2024-03-29T06:02:33;3.03;;;1.67;;
79478;SDS011;68943;49.472;17.970;2024-03-29T06:05:00;4.63;;;1.92;;
79478;SDS011;68943;49.472;17.970;2024-03-29T06:07:26;6.63;;;5.97;;
79478;SDS011;68943;49.472;17.970;2024-03-29T06:09:54;4.85;;;2.15;;
79478;SDS011;68943;49.472;17.970;2024-03-29T06:12:20;2.13;;;1.48;;
79478;SDS011;68943;49.472;17.970;2024-03-29T06:14:46;2.35;;;1.23;;
79478;SDS011;68943;49.472;17.970;2024-03-29T06:17:31;3.13;;;1.40;;
79478;SDS011;68943;49.472;17.970;2024-03-29T06:19:57;1.88;;;1.20;;
79478;SDS011;68943;49.472;17.970;2024-03-29T06:22:25;2.25;;;1.33;;
79478;SDS011;68943;49.472;17.970;2024-03-29T06:24:55;3.25;;;1.45;;
79478;SDS011;68943;49.472;17.970;2024-03-29T06:27:24;2.53;;;1.50;;
79478;SDS011;68943;49.472;17.970;2024-03-29T06:29:50;1.85;;;1.05;;
79478;SDS011;68943;49.472;17.970;2024-03-29T06:32:16;2.53;;;1.23;;
79478;SDS011;68943;49.472;17.970;2024-03-29T06:34:43;2.00;;;1.67;;
79478;SDS011;68943;49.472;17.970;2024-03-29T06:37:10;3.22;;;1.23;;
79478;SDS011;68943;49.472;17.970;2024-03-29T06:39:36;3.65;;;1.38;;
79478;SDS011;68943;49.472;17.970;2024-03-29T06:42:02;3.00;;;1.77;;
79478;SDS011;68943;49.472;17.970;2024-03-29T06:44:28;2.25;;;1.60;;
79478;SDS011;68943;49.472;17.970;2024-03-29T06:46:54;1.98;;;1.65;;
79478;SDS011;68943;49.472;17.970;2024-03-29T06:49:20;2.47;;;1.00;;
79478;SDS011;68943;49.472;17.970;2024-03-29T06:51:46;3.67;;;3.30;;
79478;SDS011;68943;49.472;17.970;2024-03-29T06:54:12;3.00;;;2.33;;
79478;SDS011;68943;49.472;17.970;2024-03-29T06:56:39;2.10;;;1.88;;
79478;SDS011;68943;49.472;17.970;2024-03-29T06:59:05;2.67;;;1.95;;
79478;SDS011;68943;49.472;17.970;2024-03-29T07:01:31;3.58;;;3.28;;
79478;SDS011;68943;49.472;17.970;2024-03-29T07:03:57;1.60;;;1.05;;
79478;SDS011;68943;49.472;17.970;2024-03-29T07:06:23;3.20;;;2.22;;
79478;SDS011;68943;49.472;17.970;2024-03-29T07:08:49;3.53;;;1.63;;
79478;SDS011;68943;49.472;17.970;2024-03-29T07:11:15;2.03;;;1.42;;
79478;SDS011;68943;49.472;17.970;2024-03-29T07:13:41;1.60;;;0.95;;
79478;SDS011;68943;49.472;17.970;2024-03-29T07:16:08;3.63;;;1.75;;
79478;SDS011;68943;49.472;17.970;2024-03-29T07:18:34;6.57;;;1.38;;
79478;SDS011;68943;49.472;17.970;2024-03-29T07:21:00;2.50;;;0.98;;
79478;SDS011;68943;49.472;17.970;2024-03-29T07:23:26;1.27;;;0.70;;
79478;SDS011;68943;49.472;17.970;2024-03-29T07:25:59;1.88;;;0.70;;
79478;SDS011;68943;49.472;17.970;2024-03-29T07:28:25;2.28;;;1.00;;
79478;SDS011;68943;49.472;17.970;2024-03-29T07:30:51;0.93;;;0.57;;
79478;SDS011;68943;49.472;17.970;2024-03-29T07:33:18;0.90;;;0.65;;
79478;SDS011;68943;49.472;17.970;2024-03-29T07:35:46;0.93;;;0.80;;
79478;SDS011;68943;49.472;17.970;2024-03-29T07:38:13;1.50;;;0.52;;
79478;SDS011;68943;49.472;17.970;2024-03-29T07:40:42;4.45;;;1.10;;
79478;SDS011;68943;49.472;17.970;2024-03-29T07:43:08;1.45;;;0.60;;
79478;SDS011;68943;49.472;17.970;2024-03-29T07:45:34;1.02;;;0.50;;
79478;SDS011;68943;49.472;17.970;2024-03-29T07:48:00;1.42;;;0.80;;
79478;SDS011;68943;49.472;17.970;2024-03-29T07:50:26;1.15;;;0.75;;
79478;SDS011;68943;49.472;17.970;2024-03-29T07:52:52;1.52;;;0.60;;
79478;SDS011;68943;49.472;17.970;2024-03-29T07:55:18;2.88;;;0.93;;
79478;SDS011;68943;49.472;17.970;2024-03-29T07:57:44;1.08;;;0.95;;
79478;SDS011;68943;49.472;17.970;2024-03-29T08:00:12;0.95;;;0.52;;
79478;SDS011;68943;49.472;17.970;2024-03-29T08:02:39;1.67;;;1.50;;
79478;SDS011;68943;49.472;17.970;2024-03-29T08:05:05;0.82;;;0.82;;
79478;SDS011;68943;49.472;17.970;2024-03-29T08:07:31;1.10;;;0.65;;
79478;SDS011;68943;49.472;17.970;2024-03-29T08:09:57;1.15;;;0.60;;
79478;SDS011;68943;49.472;17.970;2024-03-29T08:12:24;0.90;;;0.65;;
79478;SDS011;68943;49.472;17.970;2024-03-29T08:14:50;1.10;;;1.00;;
79478;SDS011;68943;49.472;17.970;2024-03-29T08:17:16;1.10;;;0.90;;
79478;SDS011;68943;49.472;17.970;2024-03-29T08:19:42;1.00;;;0.90;;
79478;SDS011;68943;49.472;17.970;2024-03-29T08:22:08;1.13;;;0.95;;
79478;SDS011;68943;49.472;17.970;2024-03-29T08:24:36;1.70;;;0.77;;
79478;SDS011;68943;49.472;17.970;2024-03-29T08:27:02;1.15;;;0.75;;
79478;SDS011;68943;49.472;17.970;2024-03-29T08:29:28;1.38;;;0.40;;
79478;SDS011;68943;49.472;17.970;2024-03-29T08:31:54;2.40;;;0.60;;
79478;SDS011;68943;49.472;17.970;2024-03-29T08:34:21;4.00;;;1.25;;
79478;SDS011;68943;49.472;17.970;2024-03-29T08:36:47;2.05;;;0.75;;
79478;SDS011;68943;49.472;17.970;2024-03-29T08:39:13;1.85;;;0.52;;
79478;SDS011;68943;49.472;17.970;2024-03-29T08:41:39;0.75;;;0.38;;
79478;SDS011;68943;49.472;17.970;2024-03-29T08:44:05;1.13;;;0.70;;
79478;SDS011;68943;49.472;17.970;2024-03-29T08:46:31;0.73;;;0.73;;
79478;SDS011;68943;49.472;17.970;2024-03-29T08:48:57;0.73;;;0.35;;
79478;SDS011;68943;49.472;17.970;2024-03-29T08:51:23;1.80;;;1.13;;
79478;SDS011;68943;49.472;17.970;2024-03-29T08:53:49;3.88;;;0.88;;
79478;SDS011;68943;49.472;17.970;2024-03-29T08:56:16;1.40;;;0.90;;
79478;SDS011;68943;49.472;17.970;2024-03-29T08:58:42;1.42;;;0.65;;
79478;SDS011;68943;49.472;17.970;2024-03-29T09:01:08;1.92;;;0.85;;
79478;SDS011;68943;49.472;17.970;2024-03-29T09:03:35;0.60;;;0.47;;
79478;SDS011;68943;49.472;17.970;2024-03-29T09:06:01;0.40;;;0.28;;
79478;SDS011;68943;49.472;17.970;2024-03-29T09:08:28;3.78;;;1.42;;
79478;SDS011;68943;49.472;17.970;2024-03-29T09:10:54;3.03;;;1.33;;
79478;SDS011;68943;49.472;17.970;2024-03-29T09:13:20;0.63;;;0.35;;
79478;SDS011;68943;49.472;17.970;2024-03-29T09:15:46;0.52;;;0.30;;
79478;SDS011;68943;49.472;17.970;2024-03-29T09:18:14;1.10;;;0.52;;
79478;SDS011;68943;49.472;17.970;2024-03-29T09:20:55;0.82;;;0.40;;
79478;SDS011;68943;49.472;17.970;2024-03-29T09:23:21;0.68;;;0.28;;
79478;SDS011;68943;49.472;17.970;2024-03-29T09:25:48;0.82;;;0.45;;
79478;SDS011;68943;49.472;17.970;2024-03-29T09:28:14;0.93;;;0.55;;
79478;SDS011;68943;49.472;17.970;2024-03-29T09:30:40;0.55;;;0.43;;
79478;SDS011;68943;49.472;17.970;2024-03-29T09:33:06;2.05;;;0.93;;
79478;SDS011;68943;49.472;17.970;2024-03-29T09:35:34;2.20;;;0.57;;
79478;SDS011;68943;49.472;17.970;2024-03-29T09:38:00;1.02;;;0.52;;
79478;SDS011;68943;49.472;17.970;2024-03-29T09:40:28;2.00;;;0.60;;
79478;SDS011;68943;49.472;17.970;2024-03-29T09:42:55;2.85;;;0.80;;
79478;SDS011;68943;49.472;17.970;2024-03-29T09:45:34;0.50;;;0.40;;
79478;SDS011;68943;49.472;17.970;2024-03-29T09:48:03;0.47;;;0.40;;
79478;SDS011;68943;49.472;17.970;2024-03-29T09:50:30;1.30;;;0.73;;
79478;SDS011;68943;49.472;17.970;2024-03-29T09:52:57;0.82;;;0.63;;
79478;SDS011;68943;49.472;17.970;2024-03-29T09:55:24;1.77;;;0.50;;
79478;SDS011;68943;49.472;17.970;2024-03-29T09:57:51;0.50;;;0.22;;
79478;SDS011;68943;49.472;17.970;2024-03-29T10:00:17;1.10;;;0.32;;
79478;SDS011;68943;49.472;17.970;2024-03-29T10:02:43;0.82;;;0.45;;
79478;SDS011;68943;49.472;17.970;2024-03-29T10:05:11;0.90;;;0.40;;
79478;SDS011;68943;49.472;17.970;2024-03-29T10:07:38;1.63;;;0.32;;
79478;SDS011;68943;49.472;17.970;2024-03-29T10:10:05;2.55;;;0.35;;
79478;SDS011;68943;49.472;17.970;2024-03-29T10:12:31;1.98;;;0.93;;
79478;SDS011;68943;49.472;17.970;2024-03-29T10:14:57;1.38;;;0.63;;
79478;SDS011;68943;49.472;17.970;2024-03-29T10:17:44;1.02;;;0.70;;
79478;SDS011;68943;49.472;17.970;2024-03-29T10:20:10;1.55;;;1.17;;
79478;SDS011;68943;49.472;17.970;2024-03-29T10:22:41;1.60;;;1.02;;
79478;SDS011;68943;49.472;17.970;2024-03-29T10:25:08;1.08;;;0.63;;
79478;SDS011;68943;49.472;17.970;2024-03-29T10:27:34;1.10;;;0.80;;
79478;SDS011;68943;49.472;17.970;2024-03-29T10:30:00;0.90;;;0.25;;
79478;SDS011;68943;49.472;17.970;2024-03-29T10:32:27;1.00;;;0.63;;
79478;SDS011;68943;49.472;17.970;2024-03-29T10:34:53;0.65;;;0.45;;
79478;SDS011;68943;49.472;17.970;2024-03-29T10:37:19;4.18;;;0.60;;
79478;SDS011;68943;49.472;17.970;2024-03-29T10:39:57;1.48;;;0.45;;
79478;SDS011;68943;49.472;17.970;2024-03-29T10:42:24;1.70;;;0.32;;
79478;SDS011;68943;49.472;17.970;2024-03-29T10:44:50;2.35;;;0.60;;
79478;SDS011;68943;49.472;17.970;2024-03-29T10:47:19;1.23;;;0.68;;
79478;SDS011;68943;49.472;17.970;2024-03-29T10:52:12;1.27;;;0.45;;
79478;SDS011;68943;49.472;17.970;2024-03-29T10:54:42;1.30;;;0.30;;
79478;SDS011;68943;49.472;17.970;2024-03-29T10:57:10;2.17;;;0.63;;
79478;SDS011;68943;49.472;17.970;2024-03-29T10:59:40;1.20;;;1.08;;
79478;SDS011;68943;49.472;17.970;2024-03-29T11:02:11;0.55;;;0.52;;
79478;SDS011;68943;49.472;17.970;2024-03-29T11:04:39;1.88;;;0.43;;
79478;SDS011;68943;49.472;17.970;2024-03-29T11:07:06;0.93;;;0.70;;
79478;SDS011;68943;49.472;17.970;2024-03-29T11:09:33;1.15;;;0.93;;
79478;SDS011;68943;49.472;17.970;2024-03-29T11:12:01;1.38;;;1.10;;
79478;SDS011;68943;49.472;17.970;2024-03-29T11:14:29;1.55;;;0.93;;
79478;SDS011;68943;49.472;17.970;2024-03-29T11:16:57;1.83;;;0.75;;
79478;SDS011;68943;49.472;17.970;2024-03-29T11:19:25;1.85;;;1.48;;
79478;SDS011;68943;49.472;17.970;2024-03-29T11:21:52;3.40;;;1.25;;
79478;SDS011;68943;49.472;17.970;2024-03-29T11:24:18;3.90;;;0.73;;
79478;SDS011;68943;49.472;17.970;2024-03-29T11:26:47;1.45;;;0.47;;
79478;SDS011;68943;49.472;17.970;2024-03-29T11:29:20;2.28;;;0.50;;
79478;SDS011;68943;49.472;17.970;2024-03-29T11:31:47;1.25;;;1.05;;
79478;SDS011;68943;49.472;17.970;2024-03-29T11:34:18;2.90;;;0.80;;
79478;SDS011;68943;49.472;17.970;2024-03-29T11:36:45;2.35;;;0.75;;
79478;SDS011;68943;49.472;17.970;2024-03-29T11:39:19;3.10;;;0.60;;
79478;SDS011;68943;49.472;17.970;2024-03-29T11:41:46;1.80;;;0.45;;
79478;SDS011;68943;49.472;17.970;2024-03-29T11:44:13;3.40;;;1.17;;
79478;SDS011;68943;49.472;17.970;2024-03-29T11:46:39;1.83;;;0.80;;
79478;SDS011;68943;49.472;17.970;2024-03-29T11:49:06;2.08;;;0.82;;
79478;SDS011;68943;49.472;17.970;2024-03-29T11:51:32;1.17;;;1.00;;
79478;SDS011;68943;49.472;17.970;2024-03-29T11:54:02;3.35;;;0.57;;
79478;SDS011;68943;49.472;17.970;2024-03-29T11:58:54;2.33;;;0.68;;
79478;SDS011;68943;49.472;17.970;2024-03-29T12:01:24;1.25;;;0.52;;
79478;SDS011;68943;49.472;17.970;2024-03-29T12:03:51;1.90;;;0.68;;
79478;SDS011;68943;49.472;17.970;2024-03-29T12:06:17;2.40;;;0.68;;
79478;SDS011;68943;49.472;17.970;2024-03-29T12:08:44;1.38;;;0.60;;
79478;SDS011;68943;49.472;17.970;2024-03-29T12:11:10;3.22;;;1.15;;
79478;SDS011;68943;49.472;17.970;2024-03-29T12:13:36;2.70;;;0.75;;
79478;SDS011;68943;49.472;17.970;2024-03-29T12:16:04;2.10;;;0.73;;
79478;SDS011;68943;49.472;17.970;2024-03-29T12:18:31;3.35;;;0.90;;
79478;SDS011;68943;49.472;17.970;2024-03-29T12:20:57;2.88;;;0.57;;
79478;SDS011;68943;49.472;17.970;2024-03-29T12:23:23;2.88;;;0.88;;
79478;SDS011;68943;49.472;17.970;2024-03-29T12:25:50;3.92;;;0.82;;
79478;SDS011;68943;49.472;17.970;2024-03-29T12:28:17;0.80;;;0.60;;
79478;SDS011;68943;49.472;17.970;2024-03-29T12:30:47;1.70;;;0.40;;
79478;SDS011;68943;49.472;17.970;2024-03-29T12:33:18;1.15;;;0.77;;
79478;SDS011;68943;49.472;17.970;2024-03-29T12:35:46;0.88;;;0.60;;
79478;SDS011;68943;49.472;17.970;2024-03-29T12:38:18;1.48;;;1.05;;
79478;SDS011;68943;49.472;17.970;2024-03-29T12:40:45;3.03;;;0.60;;
79478;SDS011;68943;49.472;17.970;2024-03-29T12:43:13;2.45;;;0.73;;
79478;SDS011;68943;49.472;17.970;2024-03-29T12:45:40;2.03;;;0.63;;
79478;SDS011;68943;49.472;17.970;2024-03-29T12:50:39;3.10;;;0.93;;
79478;SDS011;68943;49.472;17.970;2024-03-29T12:53:06;2.67;;;1.05;;
79478;SDS011;68943;49.472;17.970;2024-03-29T12:55:33;2.03;;;1.58;;
79478;SDS011;68943;49.472;17.970;2024-03-29T12:58:04;4.00;;;0.90;;
79478;SDS011;68943;49.472;17.970;2024-03-29T13:00:34;3.17;;;0.93;;
79478;SDS011;68943;49.472;17.970;2024-03-29T13:03:00;1.00;;;0.73;;
79478;SDS011;68943;49.472;17.970;2024-03-29T13:05:26;1.02;;;0.60;;
79478;SDS011;68943;49.472;17.970;2024-03-29T13:07:54;1.85;;;0.95;;
79478;SDS011;68943;49.472;17.970;2024-03-29T13:10:21;2.53;;;0.68;;
79478;SDS011;68943;49.472;17.970;2024-03-29T13:12:48;1.85;;;0.50;;
79478;SDS011;68943;49.472;17.970;2024-03-29T13:15:25;2.00;;;0.75;;
79478;SDS011;68943;49.472;17.970;2024-03-29T13:17:52;2.20;;;0.50;;
79478;SDS011;68943;49.472;17.970;2024-03-29T13:20:19;3.08;;;0.43;;
79478;SDS011;68943;49.472;17.970;2024-03-29T13:22:46;2.53;;;1.23;;
79478;SDS011;68943;49.472;17.970;2024-03-29T13:25:14;2.17;;;0.60;;
79478;SDS011;68943;49.472;17.970;2024-03-29T13:27:40;2.25;;;0.82;;
79478;SDS011;68943;49.472;17.970;2024-03-29T13:30:07;2.45;;;0.70;;
79478;SDS011;68943;49.472;17.970;2024-03-29T13:32:39;1.92;;;1.20;;
79478;SDS011;68943;49.472;17.970;2024-03-29T13:35:05;2.20;;;0.65;;
79478;SDS011;68943;49.472;17.970;2024-03-29T13:40:00;4.18;;;0.85;;
79478;SDS011;68943;49.472;17.970;2024-03-29T13:42:26;1.50;;;0.82;;
79478;SDS011;68943;49.472;17.970;2024-03-29T13:44:52;5.07;;;1.20;;
79478;SDS011;68943;49.472;17.970;2024-03-29T13:47:18;2.22;;;0.70;;
79478;SDS011;68943;49.472;17.970;2024-03-29T13:49:45;3.55;;;0.95;;
79478;SDS011;68943;49.472;17.970;2024-03-29T13:52:13;1.70;;;0.80;;
79478;SDS011;68943;49.472;17.970;2024-03-29T13:54:42;2.80;;;0.52;;
79478;SDS011;68943;49.472;17.970;2024-03-29T13:57:11;2.83;;;0.95;;
79478;SDS011;68943;49.472;17.970;2024-03-29T13:59:38;2.55;;;1.25;;
79478;SDS011;68943;49.472;17.970;2024-03-29T14:02:04;6.43;;;0.90;;
79478;SDS011;68943;49.472;17.970;2024-03-29T14:04:30;2.20;;;0.82;;
79478;SDS011;68943;49.472;17.970;2024-03-29T14:06:56;2.17;;;1.13;;
79478;SDS011;68943;49.472;17.970;2024-03-29T14:09:22;1.63;;;0.55;;
79478;SDS011;68943;49.472;17.970;2024-03-29T14:11:49;5.10;;;1.27;;
79478;SDS011;68943;49.472;17.970;2024-03-29T14:14:15;4.80;;;1.08;;
79478;SDS011;68943;49.472;17.970;2024-03-29T14:16:41;3.60;;;1.35;;
79478;SDS011;68943;49.472;17.970;2024-03-29T14:19:07;4.13;;;0.73;;
79478;SDS011;68943;49.472;17.970;2024-03-29T14:21:33;4.53;;;1.00;;
79478;SDS011;68943;49.472;17.970;2024-03-29T14:23:59;6.20;;;0.90;;
79478;SDS011;68943;49.472;17.970;2024-03-29T14:26:25;1.95;;;0.85;;
79478;SDS011;68943;49.472;17.970;2024-03-29T14:28:51;3.05;;;1.17;;
79478;SDS011;68943;49.472;17.970;2024-03-29T14:31:17;7.40;;;1.38;;
79478;SDS011;68943;49.472;17.970;2024-03-29T14:33:43;5.80;;;1.08;;
79478;SDS011;68943;49.472;17.970;2024-03-29T14:36:11;0.95;;;0.50;;
79478;SDS011;68943;49.472;17.970;2024-03-29T14:38:38;2.03;;;0.75;;
79478;SDS011;68943;49.472;17.970;2024-03-29T14:41:04;2.90;;;1.05;;